Time;durP1;ratioP1;P1;durP2;ratioP2;P2;SDS_P1;SDS_P2;PMS_P1;PMS_P2;Temp;Humidity;BMP_temperature;BMP_pressure;BME280_temperature;BME280_humidity;BME280_pressure;Samples;Min_cycle;Max_cycle;Signal;HPM_P1;HPM_P2
2023/10/24 00:02:21;;;;;;;9.13;5.20;;;;;;;13.28;78.45;97392.31;5097277;28;20028;-72
2023/10/24 00:04:47;;;;;;;10.65;5.00;;;;;;;13.35;78.17;97414.44;5110089;27;20027;-74
2023/10/24 00:07:12;;;;;;;8.02;4.50;;;;;;;13.29;78.63;97414.75;5098625;28;20032;-72
2023/10/24 00:09:38;;;;;;;5.95;3.38;;;;;;;13.34;78.97;97412.84;5110194;27;20050;-73
2023/10/24 00:12:03;;;;;;;5.13;3.33;;;;;;;13.29;78.16;97402.06;5122069;27;20019;-73
2023/10/24 00:14:29;;;;;;;6.47;3.22;;;;;;;13.33;78.27;97405.00;5123286;27;20467;-73
2023/10/24 00:16:54;;;;;;;3.72;2.67;;;;;;;13.37;78.13;97411.47;5129269;27;20417;-70
2023/10/24 00:19:20;;;;;;;6.03;3.00;;;;;;;13.32;78.71;97393.38;5092288;27;20035;-71
2023/10/24 00:21:45;;;;;;;4.45;3.20;;;;;;;13.40;78.63;97400.06;5116957;27;20756;-72
2023/10/24 00:24:11;;;;;;;5.50;3.00;;;;;;;13.44;78.16;97396.53;5105096;28;20498;-71
2023/10/24 00:26:36;;;;;;;9.32;3.25;;;;;;;13.58;77.74;97411.03;5105469;28;20030;-71
2023/10/24 00:29:02;;;;;;;6.65;3.10;;;;;;;13.71;77.26;97415.00;5090723;28;20409;-72
2023/10/24 00:31:27;;;;;;;6.43;3.05;;;;;;;13.76;76.90;97402.25;5099079;27;20023;-71
2023/10/24 00:33:53;;;;;;;4.88;2.80;;;;;;;13.79;76.61;97385.41;5104749;28;20502;-71
2023/10/24 00:36:18;;;;;;;6.70;3.28;;;;;;;13.89;76.29;97392.63;5114342;27;20081;-72
2023/10/24 00:38:44;;;;;;;5.20;3.42;;;;;;;13.90;76.37;97382.63;5122963;27;20479;-72
2023/10/24 00:41:09;;;;;;;4.28;3.33;;;;;;;13.95;76.26;97371.75;5105626;28;20067;-70
2023/10/24 00:43:34;;;;;;;4.80;3.33;;;;;;;14.03;76.19;97381.94;5107009;27;20046;-71
2023/10/24 00:46:00;;;;;;;4.68;3.40;;;;;;;14.04;76.13;97375.44;5120540;27;20019;-71
2023/10/24 00:48:28;;;;;;;4.53;3.50;;;;;;;14.08;75.49;97363.75;5104557;28;20077;-71
2023/10/24 00:50:53;;;;;;;4.03;3.15;;;;;;;14.13;75.55;97361.00;5095868;28;20031;-70
2023/10/24 00:53:19;;;;;;;7.20;3.78;;;;;;;14.18;75.15;97369.06;5106919;27;20062;-70
2023/10/24 00:55:45;;;;;;;6.22;3.60;;;;;;;14.19;75.27;97380.72;5068718;27;20051;-71
2023/10/24 00:58:11;;;;;;;4.72;3.35;;;;;;;14.13;74.95;97347.47;5104391;28;20032;-70
2023/10/24 01:00:37;;;;;;;5.90;3.08;;;;;;;14.19;75.02;97354.41;5083111;28;20027;-70
2023/10/24 01:03:04;;;;;;;4.68;3.10;;;;;;;14.15;74.80;97330.91;5078077;28;20066;-71
2023/10/24 01:05:30;;;;;;;4.88;3.10;;;;;;;14.25;74.57;97328.09;5113847;28;20020;-70
2023/10/24 01:07:56;;;;;;;4.78;3.30;;;;;;;14.26;75.00;97327.00;5125670;27;20378;-70
2023/10/24 01:10:21;;;;;;;5.30;3.45;;;;;;;14.20;74.50;97323.53;5084863;28;20052;-71
2023/10/24 01:12:47;;;;;;;5.32;3.30;;;;;;;14.29;74.81;97329.13;5077850;28;20517;-70
2023/10/24 01:15:12;;;;;;;4.60;3.17;;;;;;;14.20;74.42;97320.84;5132305;27;20090;-69
2023/10/24 01:17:50;;;;;;;3.88;3.25;;;;;;;14.39;73.82;97337.97;5104393;28;20058;-69
2023/10/24 01:20:16;;;;;;;5.55;2.70;;;;;;;14.34;73.65;97339.94;5078555;28;20080;-70
2023/10/24 01:22:46;;;;;;;4.55;2.83;;;;;;;14.47;73.02;97358.19;5108138;27;20104;-69
2023/10/24 01:25:14;;;;;;;6.57;3.25;;;;;;;14.56;72.83;97353.75;5098701;27;20027;-70
2023/10/24 01:27:42;;;;;;;6.30;3.00;;;;;;;14.48;72.55;97352.50;5094923;27;20076;-70
2023/10/24 01:30:09;;;;;;;4.43;2.75;;;;;;;14.53;72.52;97359.75;5098736;27;20035;-70
2023/10/24 01:32:34;;;;;;;6.07;3.05;;;;;;;14.49;73.00;97369.56;5099912;28;20120;-70
2023/10/24 01:35:00;;;;;;;4.75;3.15;;;;;;;14.50;72.66;97382.81;5113256;28;20495;-69
2023/10/24 01:37:25;;;;;;;5.70;2.58;;;;;;;14.49;72.54;97385.81;5112785;28;20050;-70
2023/10/24 01:39:51;;;;;;;6.57;2.95;;;;;;;14.48;72.63;97395.03;5094777;28;20466;-69
2023/10/24 01:42:16;;;;;;;5.43;3.20;;;;;;;14.42;73.06;97404.31;5112552;28;20058;-69
2023/10/24 01:44:42;;;;;;;4.53;2.60;;;;;;;14.35;73.51;97390.31;5113005;28;20067;-69
2023/10/24 01:47:07;;;;;;;5.65;2.85;;;;;;;14.28;73.86;97373.56;5112757;28;20018;-70
2023/10/24 01:49:33;;;;;;;8.05;2.92;;;;;;;14.23;73.82;97381.75;5113017;28;20074;-71
2023/10/24 01:51:58;;;;;;;3.67;2.70;;;;;;;14.26;74.07;97392.00;5108031;27;20547;-70
2023/10/24 01:54:23;;;;;;;4.20;2.70;;;;;;;14.26;74.10;97378.47;5101709;27;20035;-71
2023/10/24 01:56:50;;;;;;;5.32;2.88;;;;;;;14.24;74.24;97372.50;5118512;27;20022;-71
2023/10/24 01:59:15;;;;;;;4.32;3.17;;;;;;;14.23;74.22;97370.91;5104563;28;20032;-72
2023/10/24 02:01:41;;;;;;;3.90;2.80;;;;;;;14.23;74.17;97360.06;5090764;28;20024;-70
2023/10/24 02:04:06;;;;;;;5.07;3.25;;;;;;;14.15;74.63;97330.91;5105628;28;20114;-69
2023/10/24 02:06:32;;;;;;;4.53;2.65;;;;;;;14.18;74.71;97335.75;5107208;27;20021;-70
2023/10/24 02:08:57;;;;;;;4.45;3.00;;;;;;;14.16;74.86;97327.13;5094569;28;20406;-70
2023/10/24 02:11:22;;;;;;;5.60;3.17;;;;;;;14.13;75.10;97333.09;5114398;27;20731;-69
2023/10/24 02:13:49;;;;;;;3.42;2.92;;;;;;;14.09;74.93;97332.06;5107211;28;20490;-70
2023/10/24 02:16:14;;;;;;;5.35;2.90;;;;;;;14.08;75.15;97342.09;5112433;28;20026;-70
2023/10/24 02:18:39;;;;;;;3.45;3.08;;;;;;;13.94;75.59;97329.50;5107815;28;20042;-70
2023/10/24 02:21:08;;;;;;;3.45;3.05;;;;;;;13.99;76.20;97324.06;5089646;28;20051;-70
2023/10/24 02:23:40;;;;;;;4.43;2.90;;;;;;;14.00;76.01;97317.56;5094519;28;20123;-70
2023/10/24 02:26:05;;;;;;;4.20;2.75;;;;;;;13.95;76.54;97318.41;5099346;28;20032;-70
2023/10/24 02:28:31;;;;;;;4.38;2.63;;;;;;;13.85;76.51;97304.97;5097701;28;20031;-70
2023/10/24 02:31:01;;;;;;;8.75;2.95;;;;;;;13.83;76.38;97313.41;5131672;27;20083;-70
2023/10/24 02:33:26;;;;;;;4.53;2.75;;;;;;;13.93;76.30;97311.69;5114320;27;20038;-71
2023/10/24 02:35:52;;;;;;;4.22;2.95;;;;;;;13.93;76.64;97325.22;5132642;27;20087;-70
2023/10/24 02:38:17;;;;;;;6.28;3.15;;;;;;;13.88;76.39;97326.84;5114181;28;20091;-70
2023/10/24 02:40:51;;;;;;;4.57;2.90;;;;;;;13.96;76.00;97327.31;5097257;28;20514;-71
2023/10/24 02:43:16;;;;;;;6.57;3.05;;;;;;;13.98;75.84;97330.56;5132244;28;20070;-71
2023/10/24 02:45:43;;;;;;;4.82;3.13;;;;;;;13.94;75.79;97329.50;5114073;28;20023;-71
2023/10/24 02:48:08;;;;;;;6.00;2.78;;;;;;;14.00;75.65;97317.56;5105677;28;20031;-71
2023/10/24 02:50:36;;;;;;;4.93;2.80;;;;;;;13.99;75.82;97315.94;5127523;28;20030;-68
2023/10/24 02:53:06;;;;;;;6.38;2.67;;;;;;;13.97;75.58;97304.59;5096919;28;20039;-68
2023/10/24 02:55:33;;;;;;;5.40;3.28;;;;;;;13.94;76.43;97313.28;5115101;28;20028;-69
2023/10/24 02:57:59;;;;;;;4.63;3.00;;;;;;;13.91;76.56;97303.03;5114079;28;20023;-70
2023/10/24 03:00:25;;;;;;;2.95;2.63;;;;;;;13.88;77.02;97301.72;5107327;28;20040;-70
2023/10/24 03:02:50;;;;;;;5.75;3.22;;;;;;;13.82;77.30;97284.72;5078825;28;20042;-71
2023/10/24 03:05:16;;;;;;;5.20;2.55;;;;;;;13.84;77.40;97304.16;5106317;28;20068;-69
2023/10/24 03:07:41;;;;;;;5.13;3.08;;;;;;;13.80;77.75;97303.13;5085704;28;20103;-69
2023/10/24 03:10:07;;;;;;;5.35;3.08;;;;;;;13.76;78.29;97309.41;5114073;28;20396;-70
2023/10/24 03:12:32;;;;;;;4.85;3.20;;;;;;;13.76;78.37;97315.63;5132052;28;20551;-70
2023/10/24 03:14:58;;;;;;;5.15;3.75;;;;;;;13.72;78.24;97322.69;5113902;28;20039;-69
2023/10/24 03:17:24;;;;;;;6.53;3.80;;;;;;;13.60;78.65;97319.59;5123332;28;20031;-70
2023/10/24 03:19:49;;;;;;;6.30;4.22;;;;;;;13.62;78.77;97339.03;5093750;28;20039;-69
2023/10/24 03:22:15;;;;;;;7.35;3.55;;;;;;;13.62;78.58;97354.47;5073098;28;20016;-71
2023/10/24 03:24:41;;;;;;;6.93;3.63;;;;;;;13.48;78.68;97335.38;5088390;27;20027;-70
2023/10/24 03:27:11;;;;;;;5.95;3.42;;;;;;;13.49;78.95;97339.69;5101017;27;20022;-71
2023/10/24 03:29:37;;;;;;;5.15;3.28;;;;;;;13.34;79.44;97315.50;5118970;27;20035;-71
2023/10/24 03:32:03;;;;;;;5.88;3.47;;;;;;;13.37;79.71;97320.31;5117843;27;20027;-69
2023/10/24 03:34:29;;;;;;;5.75;3.70;;;;;;;13.34;80.19;97331.72;5100784;27;20081;-70
2023/10/24 03:36:54;;;;;;;4.05;3.65;;;;;;;13.29;80.49;97349.88;5136085;27;20023;-69
2023/10/24 03:39:20;;;;;;;5.10;3.50;;;;;;;13.29;80.09;97353.38;5101741;28;20096;-69
2023/10/24 03:41:45;;;;;;;5.43;3.60;;;;;;;13.16;80.40;97324.28;5076582;28;20514;-69
2023/10/24 03:44:10;;;;;;;4.68;3.40;;;;;;;13.32;80.47;97350.13;5126665;27;20068;-68
2023/10/24 03:46:36;;;;;;;9.85;3.88;;;;;;;13.33;80.22;97367.94;5135875;27;20050;-68
2023/10/24 03:49:02;;;;;;;5.85;4.15;;;;;;;13.32;80.35;97366.34;5120221;27;20046;-68
2023/10/24 03:51:27;;;;;;;5.28;3.65;;;;;;;13.31;80.74;97370.13;5096472;28;20023;-68
2023/10/24 03:53:53;;;;;;;9.30;3.70;;;;;;;13.20;81.17;97373.19;5096732;28;20031;-69
2023/10/24 03:56:18;;;;;;;7.38;3.70;;;;;;;13.25;81.29;97371.25;5096752;28;20101;-69
2023/10/24 03:58:43;;;;;;;5.45;3.63;;;;;;;13.21;81.08;97370.19;5114750;28;20043;-70
2023/10/24 04:01:09;;;;;;;6.28;3.90;;;;;;;13.20;81.24;97365.88;5096372;28;20016;-69
2023/10/24 04:03:34;;;;;;;6.38;4.18;;;;;;;13.33;80.93;97381.47;5079596;28;20446;-70
2023/10/24 04:06:00;;;;;;;7.05;3.83;;;;;;;13.25;80.93;97365.84;5103405;28;20031;-68
2023/10/24 04:08:25;;;;;;;7.90;3.78;;;;;;;13.34;81.11;97371.47;5114812;28;20487;-69
2023/10/24 04:10:50;;;;;;;6.47;3.90;;;;;;;13.30;81.33;97357.72;5114573;28;20504;-70
2023/10/24 04:13:16;;;;;;;6.85;3.85;;;;;;;13.35;81.03;97354.16;5108943;28;20067;-70
2023/10/24 04:15:41;;;;;;;8.30;4.28;;;;;;;13.34;81.00;97347.94;5100885;28;20027;-70
2023/10/24 04:18:07;;;;;;;4.97;4.10;;;;;;;13.26;81.01;97329.59;5122719;27;20452;-70
2023/10/24 04:20:32;;;;;;;6.95;4.57;;;;;;;13.32;81.40;97333.91;5122311;27;20023;-69
2023/10/24 04:23:03;;;;;;;8.98;4.32;;;;;;;13.37;80.70;97341.94;5067828;28;20035;-70
2023/10/24 04:25:29;;;;;;;7.47;4.30;;;;;;;13.42;81.28;97339.19;5114343;28;20372;-70
2023/10/24 04:27:56;;;;;;;7.45;4.15;;;;;;;13.41;80.62;97337.59;5077409;28;20499;-70
2023/10/24 04:30:21;;;;;;;8.38;4.65;;;;;;;13.43;81.26;97346.25;5076624;28;20150;-71
2023/10/24 04:32:47;;;;;;;5.63;4.30;;;;;;;13.37;81.21;97336.53;5057211;28;20020;-71
2023/10/24 04:35:13;;;;;;;10.02;5.70;;;;;;;13.36;81.07;97344.94;5114339;28;20116;-71
2023/10/24 04:37:39;;;;;;;10.13;6.53;;;;;;;13.31;81.49;97348.50;5092942;27;20023;-71
2023/10/24 04:40:07;;;;;;;24.98;15.43;;;;;;;13.24;81.40;97339.91;5116306;27;20035;-71
2023/10/24 04:42:32;;;;;;;11.13;6.72;;;;;;;13.12;81.89;97326.75;5104051;28;20024;-70
2023/10/24 04:44:57;;;;;;;17.10;10.68;;;;;;;13.16;82.29;97337.81;5086398;28;20032;-71
2023/10/24 04:47:26;;;;;;;83.47;47.72;;;;;;;13.20;82.04;97325.34;5116076;27;20494;-72
2023/10/24 04:49:51;;;;;;;59.22;34.58;;;;;;;13.23;82.36;97319.38;5099052;27;20035;-71
2023/10/24 04:52:17;;;;;;;32.22;20.27;;;;;;;13.24;82.39;97312.84;5133893;27;20023;-73
2023/10/24 04:54:42;;;;;;;24.42;14.20;;;;;;;13.24;82.32;97320.97;5115894;27;20119;-71
2023/10/24 04:57:08;;;;;;;15.75;10.98;;;;;;;13.23;82.38;97318.56;5116091;27;20035;-72
2023/10/24 04:59:34;;;;;;;17.20;11.55;;;;;;;13.18;82.57;97305.88;5105233;28;20090;-73
2023/10/24 05:01:59;;;;;;;14.77;10.45;;;;;;;13.22;82.53;97317.75;5094808;28;20027;-72
2023/10/24 05:04:25;;;;;;;11.57;8.70;;;;;;;13.18;82.96;97305.06;5095452;28;20449;-71
2023/10/24 05:06:50;;;;;;;11.32;8.73;;;;;;;13.20;82.91;97313.72;5113562;28;20016;-71
2023/10/24 05:09:16;;;;;;;9.77;7.20;;;;;;;13.13;83.15;97330.25;5078114;28;20089;-71
2023/10/24 05:11:42;;;;;;;8.50;7.20;;;;;;;13.06;83.77;97337.88;5126855;27;20024;-71
2023/10/24 05:14:07;;;;;;;9.70;6.40;;;;;;;13.02;83.86;97323.28;5070235;28;20064;-72
2023/10/24 05:16:32;;;;;;;10.07;6.07;;;;;;;13.04;83.70;97326.50;5065921;28;20076;-73
2023/10/24 05:18:58;;;;;;;12.50;8.77;;;;;;;13.01;83.92;97311.66;5094937;28;20477;-73
2023/10/24 05:21:23;;;;;;;8.85;7.40;;;;;;;13.00;83.60;97301.09;5076535;28;20038;-71
2023/10/24 05:23:48;;;;;;;11.45;8.68;;;;;;;13.08;83.84;97311.38;5113169;28;20036;-71
2023/10/24 05:26:14;;;;;;;10.52;7.70;;;;;;;13.09;83.75;97302.97;5112803;28;20433;-72
2023/10/24 05:28:39;;;;;;;12.02;8.85;;;;;;;13.14;84.06;97294.81;5112993;28;20119;-71
2023/10/24 05:31:07;;;;;;;9.77;6.60;;;;;;;13.08;83.74;97293.25;5094455;28;20024;-71
2023/10/24 05:33:34;;;;;;;7.75;6.00;;;;;;;13.07;84.07;97288.09;5112947;28;20044;-71
2023/10/24 05:35:59;;;;;;;9.00;6.15;;;;;;;13.14;83.73;97294.00;5112805;28;20023;-72
2023/10/24 05:38:24;;;;;;;8.32;5.78;;;;;;;13.06;84.21;97281.09;5094744;28;20039;-72
2023/10/24 05:40:50;;;;;;;10.10;6.90;;;;;;;13.09;84.46;97294.84;5094434;28;20061;-72
2023/10/24 05:43:15;;;;;;;7.22;5.85;;;;;;;13.08;84.29;97278.94;5077176;28;20050;-71
2023/10/24 05:45:40;;;;;;;7.28;6.38;;;;;;;13.10;84.35;97268.63;5112632;28;20102;-71
2023/10/24 05:48:06;;;;;;;8.45;6.85;;;;;;;13.06;84.02;97265.69;5073468;28;20380;-72
2023/10/24 05:50:33;;;;;;;7.88;6.45;;;;;;;13.02;84.05;97251.09;5107202;28;20052;-71
2023/10/24 05:52:58;;;;;;;8.93;6.03;;;;;;;13.09;84.06;97258.94;5112228;28;20084;-71
2023/10/24 05:55:24;;;;;;;7.40;5.65;;;;;;;13.03;84.44;97243.78;5112431;28;20110;-71
2023/10/24 05:57:49;;;;;;;9.30;6.53;;;;;;;13.09;84.61;97243.50;5094458;28;20039;-72
2023/10/24 06:00:14;;;;;;;12.32;7.10;;;;;;;13.10;84.15;97225.38;5105691;28;20107;-72
2023/10/24 06:02:40;;;;;;;9.15;5.72;;;;;;;13.05;84.76;97217.28;5081625;28;20040;-72
2023/10/24 06:05:06;;;;;;;7.35;6.28;;;;;;;12.99;84.16;97194.91;5093972;28;20047;-72
2023/10/24 06:07:31;;;;;;;9.40;6.57;;;;;;;13.03;85.00;97195.13;5094148;28;20040;-71
2023/10/24 06:09:57;;;;;;;10.27;6.45;;;;;;;12.95;84.85;97171.44;5083691;28;20074;-72
2023/10/24 06:12:22;;;;;;;9.68;6.15;;;;;;;12.93;85.11;97168.19;5111872;28;20032;-72
2023/10/24 06:14:47;;;;;;;10.60;6.30;;;;;;;12.86;85.03;97182.03;5112123;28;20364;-72
2023/10/24 06:17:17;;;;;;;10.95;6.28;;;;;;;12.92;85.03;97182.81;5093746;28;20038;-71
2023/10/24 06:19:43;;;;;;;8.43;6.13;;;;;;;12.97;84.50;97180.88;5093829;28;20509;-72
2023/10/24 06:22:09;;;;;;;11.23;6.35;;;;;;;12.90;84.77;97193.09;5111680;28;20122;-72
2023/10/24 06:24:35;;;;;;;41.83;31.38;;;;;;;12.86;85.10;97190.16;5074788;28;20115;-72
2023/10/24 06:27:00;;;;;;;17.90;13.18;;;;;;;12.95;84.68;97201.16;5094027;28;20110;-72
2023/10/24 06:29:25;;;;;;;29.40;23.60;;;;;;;12.88;85.23;97208.81;5088979;28;20043;-72
2023/10/24 06:31:51;;;;;;;17.65;15.75;;;;;;;12.94;84.49;97186.03;5111052;28;20443;-72
2023/10/24 06:34:16;;;;;;;12.35;8.90;;;;;;;12.95;84.87;97182.25;5079301;28;20087;-72
2023/10/24 06:36:42;;;;;;;10.32;8.40;;;;;;;12.96;84.69;97179.25;5102075;28;20032;-72
2023/10/24 06:39:07;;;;;;;11.15;8.88;;;;;;;12.98;84.86;97176.25;5070924;28;20086;-72
2023/10/24 06:41:33;;;;;;;11.93;8.90;;;;;;;12.92;84.55;97169.31;5051462;28;20381;-72
2023/10/24 06:43:59;;;;;;;16.00;10.05;;;;;;;12.81;85.60;97208.31;5075098;28;20027;-72
2023/10/24 06:46:24;;;;;;;8.57;6.82;;;;;;;12.65;86.60;97225.72;5051481;28;20051;-72
2023/10/24 06:48:52;;;;;;;8.38;6.30;;;;;;;12.60;87.10;97240.09;5090117;28;20059;-72
2023/10/24 06:51:17;;;;;;;7.82;6.35;;;;;;;12.55;86.78;97223.09;5097454;28;20038;-72
2023/10/24 06:53:42;;;;;;;10.48;8.18;;;;;;;12.51;87.16;97235.56;5107562;28;20452;-72
2023/10/24 06:56:08;;;;;;;15.52;9.45;;;;;;;12.57;86.89;97229.81;5113903;28;20031;-72
2023/10/24 06:58:33;;;;;;;12.65;10.10;;;;;;;12.72;86.63;97237.03;5114011;28;20081;-71
2023/10/24 07:00:59;;;;;;;10.60;8.63;;;;;;;12.78;87.10;97241.28;5117718;28;20517;-72
2023/10/24 07:03:24;;;;;;;10.77;9.65;;;;;;;12.86;86.43;97232.59;5129417;27;20110;-72
2023/10/24 07:05:53;;;;;;;15.05;13.50;;;;;;;12.98;86.60;97246.53;5086373;28;20029;-71
2023/10/24 07:08:19;;;;;;;14.90;11.85;;;;;;;13.01;86.76;97246.78;5079601;27;20028;-71
2023/10/24 07:10:45;;;;;;;13.25;11.52;;;;;;;13.03;86.28;97239.19;5076298;28;20058;-70
2023/10/24 07:13:11;;;;;;;11.23;9.43;;;;;;;13.10;86.75;97238.91;5129868;27;20027;-71
2023/10/24 07:15:38;;;;;;;10.77;8.93;;;;;;;13.08;86.78;97257.31;5110652;28;20023;-71
2023/10/24 07:18:04;;;;;;;10.68;8.90;;;;;;;12.99;87.10;97242.75;5094790;28;20478;-71
2023/10/24 07:20:29;;;;;;;11.80;8.32;;;;;;;12.98;87.12;97241.94;5110697;28;20057;-71
2023/10/24 07:22:54;;;;;;;10.23;9.23;;;;;;;13.01;87.02;97245.97;5110782;27;20047;-71
2023/10/24 07:25:20;;;;;;;10.40;8.23;;;;;;;13.06;87.32;97243.25;5115354;28;20395;-71
2023/10/24 07:27:46;;;;;;;11.27;8.95;;;;;;;13.12;87.38;97226.72;5110741;27;20027;-71
2023/10/24 07:30:11;;;;;;;15.68;10.43;;;;;;;13.19;86.81;97220.97;5085968;28;20029;-72
2023/10/24 07:32:37;;;;;;;13.85;11.50;;;;;;;13.32;86.29;97235.72;5084182;28;20472;-72
2023/10/24 07:35:03;;;;;;;15.77;10.35;;;;;;;13.26;86.51;97237.66;5104225;27;20486;-72
2023/10/24 07:37:29;;;;;;;9.45;8.50;;;;;;;13.21;86.84;97212.59;5116340;27;20023;-72
2023/10/24 07:39:54;;;;;;;13.05;9.27;;;;;;;13.41;86.82;97224.00;5122099;27;20035;-71
2023/10/24 07:42:20;;;;;;;10.43;8.35;;;;;;;13.30;86.66;97200.06;5118731;27;20871;-72
2023/10/24 07:44:45;;;;;;;11.48;8.05;;;;;;;13.52;86.34;97225.50;5115751;27;20049;-72
2023/10/24 07:47:10;;;;;;;10.15;7.82;;;;;;;13.60;86.08;97230.31;5121592;27;20647;-72
2023/10/24 07:49:36;;;;;;;8.85;7.32;;;;;;;13.61;85.45;97201.31;5110668;28;20126;-71
2023/10/24 07:52:03;;;;;;;9.77;7.68;;;;;;;13.71;85.75;97180.38;5110152;27;20098;-72
2023/10/24 07:54:29;;;;;;;9.93;7.82;;;;;;;13.75;85.72;97176.00;5096995;28;20039;-71
2023/10/24 07:56:55;;;;;;;10.73;8.68;;;;;;;13.83;85.37;97183.50;5110314;27;20039;-72
2023/10/24 07:59:20;;;;;;;10.10;7.22;;;;;;;13.83;84.38;97172.66;5091126;27;20037;-72
2023/10/24 08:01:45;;;;;;;8.70;6.93;;;;;;;13.90;84.79;97193.97;5101238;28;20031;-71
2023/10/24 08:04:11;;;;;;;9.38;7.10;;;;;;;14.00;84.17;97187.63;5060815;28;20034;-71
2023/10/24 08:06:36;;;;;;;9.02;6.65;;;;;;;13.90;84.45;97188.53;5094422;28;20015;-72
2023/10/24 08:09:01;;;;;;;7.75;6.85;;;;;;;13.93;84.04;97204.22;5092462;28;20035;-72
2023/10/24 08:11:27;;;;;;;8.52;6.13;;;;;;;14.00;83.97;97209.28;5108879;27;20063;-71
2023/10/24 08:13:52;;;;;;;10.23;6.65;;;;;;;14.03;83.92;97219.50;5103989;27;20039;-71
2023/10/24 08:16:20;;;;;;;8.10;6.28;;;;;;;14.07;83.22;97225.97;5102919;28;20019;-72
2023/10/24 08:18:46;;;;;;;10.15;7.25;;;;;;;14.04;83.83;97231.94;5114345;28;20042;-72
2023/10/24 08:21:12;;;;;;;10.13;6.72;;;;;;;13.93;83.75;97223.16;5095406;28;20106;-73
2023/10/24 08:23:38;;;;;;;10.73;6.30;;;;;;;13.88;83.71;97215.88;5112558;28;20525;-72
2023/10/24 08:26:03;;;;;;;10.60;6.38;;;;;;;14.05;83.71;97239.78;5114275;28;20102;-73
2023/10/24 08:28:29;;;;;;;11.35;6.65;;;;;;;13.95;83.85;97228.28;5095659;28;20047;-73
2023/10/24 08:30:54;;;;;;;9.43;6.38;;;;;;;13.90;83.45;97217.50;5096300;28;20050;-72
2023/10/24 08:33:20;;;;;;;10.27;6.40;;;;;;;14.03;83.54;97224.91;5112659;28;20032;-72
2023/10/24 08:35:46;;;;;;;8.45;5.97;;;;;;;14.08;83.68;97217.53;5075746;28;20026;-72
2023/10/24 08:38:12;;;;;;;8.43;6.47;;;;;;;14.13;83.56;97213.97;5092713;27;20027;-71
2023/10/24 08:40:37;;;;;;;11.30;7.10;;;;;;;14.13;83.47;97200.41;5121100;27;20382;-72
2023/10/24 08:43:03;;;;;;;10.95;7.80;;;;;;;14.08;83.48;97195.06;5091978;28;20566;-72
2023/10/24 08:45:28;;;;;;;11.07;7.43;;;;;;;14.11;83.57;97210.75;5108220;28;20571;-72
2023/10/24 08:47:55;;;;;;;10.25;6.80;;;;;;;13.99;83.31;97186.00;5057101;28;20132;-72
2023/10/24 08:50:20;;;;;;;10.55;8.10;;;;;;;14.05;83.48;97201.88;5109280;27;20019;-72
2023/10/24 08:52:45;;;;;;;10.70;8.05;;;;;;;14.18;83.56;97190.34;5105902;28;20143;-72
2023/10/24 08:55:11;;;;;;;12.77;7.70;;;;;;;14.15;83.59;97190.91;5091640;27;20015;-72
2023/10/24 08:57:42;;;;;;;13.90;8.00;;;;;;;14.24;83.57;97213.53;5102016;27;20114;-72
2023/10/24 09:00:12;;;;;;;9.20;8.13;;;;;;;14.30;83.41;97208.91;5119523;27;20035;-72
2023/10/24 09:02:39;;;;;;;11.63;8.23;;;;;;;14.22;83.75;97195.97;5103012;27;20035;-72
2023/10/24 09:05:05;;;;;;;12.05;9.02;;;;;;;14.28;84.04;97183.97;5098642;28;20032;-72
2023/10/24 09:07:31;;;;;;;11.10;7.63;;;;;;;14.25;83.70;97184.56;5086608;27;20035;-72
2023/10/24 09:09:56;;;;;;;9.02;7.22;;;;;;;14.27;83.64;97179.66;5098384;27;20023;-72
2023/10/24 09:12:22;;;;;;;8.43;5.55;;;;;;;14.31;83.50;97180.69;5124985;27;20110;-72
2023/10/24 09:14:48;;;;;;;8.57;5.65;;;;;;;14.38;82.74;97184.66;5055121;28;20023;-72
2023/10/24 09:17:17;;;;;;;10.77;6.05;;;;;;;14.36;82.57;97169.78;5120455;27;20764;-72
2023/10/24 09:19:43;;;;;;;10.18;6.50;;;;;;;14.47;82.05;97190.22;5100258;28;20110;-72
2023/10/24 09:22:09;;;;;;;12.05;6.80;;;;;;;14.46;82.07;97191.31;5068858;27;20031;-72
2023/10/24 09:24:35;;;;;;;8.45;6.65;;;;;;;14.42;82.69;97201.16;5078288;28;20030;-72
2023/10/24 09:27:01;;;;;;;8.18;6.30;;;;;;;14.45;82.43;97211.38;5087333;28;20032;-72
2023/10/24 09:29:41;;;;;;;9.23;6.53;;;;;;;14.41;81.95;97210.34;5060857;27;20528;-71
2023/10/24 09:32:07;;;;;;;7.10;6.32;;;;;;;14.43;82.32;97210.88;5123804;27;20035;-71
2023/10/24 09:34:33;;;;;;;11.38;7.07;;;;;;;14.48;82.27;97216.22;5105332;28;20157;-72
2023/10/24 09:37:06;;;;;;;9.68;7.05;;;;;;;14.39;82.50;97217.97;5094822;28;20028;-72
2023/10/24 09:39:32;;;;;;;10.15;7.20;;;;;;;14.31;82.77;97218.63;5112180;27;20038;-72
2023/10/24 09:41:57;;;;;;;11.98;10.60;;;;;;;14.30;82.90;97208.91;5103330;28;20019;-71
2023/10/24 09:44:23;;;;;;;12.70;11.35;;;;;;;14.43;82.97;97229.81;5108495;28;20027;-72
2023/10/24 09:46:49;;;;;;;12.27;10.55;;;;;;;14.42;83.01;97223.59;5106490;28;20027;-72
2023/10/24 09:49:15;;;;;;;12.00;9.93;;;;;;;14.45;83.41;97222.22;5080187;27;20062;-71
2023/10/24 09:51:41;;;;;;;14.25;9.48;;;;;;;14.58;83.22;97220.69;5121736;27;20054;-71
2023/10/24 09:54:07;;;;;;;10.88;7.15;;;;;;;14.59;83.22;97206.81;5126447;27;20035;-71
2023/10/24 09:56:33;;;;;;;6.90;6.22;;;;;;;14.57;82.77;97214.44;5087689;27;20022;-71
2023/10/24 09:58:59;;;;;;;6.15;5.50;;;;;;;14.66;83.08;97206.44;5098150;28;20035;-72
2023/10/24 10:01:27;;;;;;;11.20;6.25;;;;;;;14.66;82.87;97207.25;5112446;28;20119;-71
2023/10/24 10:03:53;;;;;;;9.23;6.00;;;;;;;14.69;82.64;97212.09;5081302;28;20064;-72
2023/10/24 10:06:18;;;;;;;10.30;6.70;;;;;;;14.74;82.55;97208.50;5103435;28;20051;-72
2023/10/24 10:08:44;;;;;;;11.85;7.60;;;;;;;14.61;82.16;97174.81;5056564;28;20039;-72
2023/10/24 10:11:10;;;;;;;10.27;7.43;;;;;;;14.70;82.33;97202.88;5105332;27;20023;-72
2023/10/24 10:13:42;;;;;;;7.25;6.38;;;;;;;14.68;82.06;97194.22;5110084;28;20387;-72
2023/10/24 10:16:34;;;;;;;10.38;7.63;;;;;;;14.70;81.79;97202.06;5089226;28;20116;-72
2023/10/24 10:19:09;;;;;;;10.80;7.72;;;;;;;14.64;81.97;97193.22;5082687;28;20495;-71
2023/10/24 10:21:47;;;;;;;12.07;8.57;;;;;;;14.63;81.82;97201.66;5112128;28;20495;-72
2023/10/24 10:24:30;;;;;;;10.10;6.85;;;;;;;14.53;81.45;97189.06;5088588;28;20069;-72
2023/10/24 10:27:03;;;;;;;10.90;7.82;;;;;;;14.65;81.18;97178.56;5084009;28;20033;-72
2023/10/24 10:29:48;;;;;;;10.32;6.97;;;;;;;14.69;81.26;97187.72;5098985;28;20494;-71
2023/10/24 10:32:28;;;;;;;11.70;6.88;;;;;;;14.73;81.10;97180.59;5087247;28;20154;-72
2023/10/24 10:34:54;;;;;;;11.10;7.43;;;;;;;14.71;81.34;97182.81;5107671;28;20240;-72
2023/10/24 10:37:19;;;;;;;9.65;7.72;;;;;;;14.75;81.15;97178.38;5111809;28;20024;-73
2023/10/24 10:40:24;;;;;;;9.52;8.30;;;;;;;14.69;81.37;97176.88;5093858;28;20031;-72
2023/10/24 10:42:50;;;;;;;12.98;8.73;;;;;;;14.66;81.86;97163.09;5111097;28;20047;-72
2023/10/24 10:45:22;;;;;;;9.55;8.65;;;;;;;14.76;81.77;97171.06;5090034;28;20035;-72
2023/10/24 10:47:47;;;;;;;12.70;8.25;;;;;;;14.74;81.92;97159.72;5110051;28;20645;-72
2023/10/24 10:50:12;;;;;;;11.02;7.47;;;;;;;14.74;81.92;97163.25;5111112;28;20015;-72
2023/10/24 10:52:57;;;;;;;10.68;7.18;;;;;;;14.78;81.78;97161.53;5092243;28;20169;-73
2023/10/24 10:55:33;;;;;;;10.05;7.28;;;;;;;14.81;81.87;97152.81;5110978;28;20482;-73
2023/10/24 10:58:14;;;;;;;9.48;6.70;;;;;;;14.86;81.67;97163.59;5092164;28;20027;-72
2023/10/24 11:00:59;;;;;;;11.30;7.50;;;;;;;14.84;81.72;97154.94;5078170;28;20040;-72
2023/10/24 11:03:33;;;;;;;8.68;7.22;;;;;;;14.86;81.77;97147.31;5101172;28;20042;-72
2023/10/24 11:06:10;;;;;;;10.32;7.50;;;;;;;14.86;81.91;97160.88;5120477;28;20043;-72
2023/10/24 11:08:36;;;;;;;10.63;7.88;;;;;;;14.80;81.89;97148.50;5100265;28;20563;-72
2023/10/24 11:11:01;;;;;;;11.10;7.53;;;;;;;14.78;82.03;97145.28;5103768;28;20023;-72
2023/10/24 11:13:41;;;;;;;11.65;8.48;;;;;;;14.72;81.90;97149.19;5093170;28;20058;-72
2023/10/24 11:16:08;;;;;;;12.55;8.38;;;;;;;14.57;82.61;97149.41;5093483;28;20076;-72
2023/10/24 11:18:34;;;;;;;12.52;8.25;;;;;;;14.64;83.03;97152.56;5095527;28;20493;-72
2023/10/24 11:21:00;;;;;;;12.98;9.88;;;;;;;14.68;82.80;97140.03;5093194;28;20101;-72
2023/10/24 11:23:26;;;;;;;12.48;8.30;;;;;;;14.68;82.76;97131.88;5120060;28;20382;-72
2023/10/24 11:25:53;;;;;;;11.25;9.20;;;;;;;14.70;82.91;97137.03;5117299;28;20032;-72
2023/10/24 11:28:19;;;;;;;15.98;10.00;;;;;;;14.72;82.85;97127.50;5084889;28;20020;-71